createdAt,value
2018-01-02T00:00:58.549Z,995.36
2018-01-02T00:02:51.226Z,995.34
2018-01-02T00:03:52.109Z,995.37
2018-01-02T00:05:44.737Z,995.45
2018-01-02T00:06:45.643Z,995.45
2018-01-02T00:08:37.367Z,995.44
2018-01-02T00:09:37.348Z,995.49
2018-01-02T00:11:31.906Z,995.52
2018-01-02T00:12:32.788Z,995.54
2018-01-02T00:14:26.314Z,995.60
2018-01-02T00:15:27.256Z,995.60
2018-01-02T00:17:18.790Z,995.70
2018-01-02T00:18:19.887Z,995.71
2018-01-02T00:20:12.386Z,995.72
2018-01-02T00:21:13.438Z,995.71
2018-01-02T00:23:07.567Z,995.78
2018-01-02T00:24:05.441Z,995.82
2018-01-02T00:26:00.528Z,995.82
2018-01-02T00:26:58.626Z,995.85
2018-01-02T00:28:53.220Z,995.92
2018-01-02T00:29:54.090Z,995.93
2018-01-02T00:31:47.650Z,996.00
2018-01-02T00:32:47.653Z,996.00
2018-01-02T00:34:40.377Z,996.04
2018-01-02T00:35:41.207Z,996.07
2018-01-02T00:37:34.800Z,996.08
2018-01-02T00:38:34.806Z,996.19
2018-01-02T00:40:27.450Z,996.18
2018-01-02T00:41:28.334Z,996.16
2018-01-02T00:43:21.846Z,996.20
2018-01-02T00:44:20.069Z,996.28
2018-01-02T00:46:14.622Z,996.30
2018-01-02T00:47:15.475Z,996.37
2018-01-02T00:49:08.139Z,996.31
2018-01-02T00:50:08.983Z,996.39
2018-01-02T00:52:02.586Z,996.40
2018-01-02T00:53:02.547Z,996.43
2018-01-02T00:54:55.306Z,996.45
2018-01-02T00:55:56.991Z,996.44
2018-01-02T00:57:48.607Z,996.55
2018-01-02T00:58:49.658Z,996.49
2018-01-02T01:00:42.337Z,996.52
2018-01-02T01:01:41.511Z,996.54
2018-01-02T01:03:36.767Z,996.59
2018-01-02T01:04:36.665Z,996.55
2018-01-02T01:06:29.459Z,996.67
2018-01-02T01:07:30.312Z,996.66
2018-01-02T01:09:22.751Z,996.71
2018-01-02T01:10:23.889Z,996.77
2018-01-02T01:12:14.692Z,996.81
2018-01-02T01:13:17.587Z,996.84
2018-01-02T01:15:11.024Z,996.84
2018-01-02T01:16:10.982Z,996.85
2018-01-02T01:18:05.136Z,996.92
2018-01-02T01:19:02.789Z,996.95
2018-01-02T01:20:56.269Z,996.95
2018-01-02T01:21:59.034Z,996.98
2018-01-02T01:23:51.650Z,997.06
2018-01-02T01:24:51.661Z,997.09
2018-01-02T01:26:44.382Z,997.05
2018-01-02T01:27:45.266Z,997.07
2018-01-02T01:29:38.836Z,997.13
2018-01-02T01:30:38.771Z,997.17
2018-01-02T01:32:32.997Z,997.20
2018-01-02T01:33:32.334Z,997.21
2018-01-02T01:35:25.071Z,997.29
2018-01-02T01:36:24.197Z,997.26
2018-01-02T01:38:19.433Z,997.28
2018-01-02T01:39:19.474Z,997.29
2018-01-02T01:41:12.068Z,997.29
2018-01-02T01:42:12.992Z,997.39
2018-01-02T01:44:06.537Z,997.39
2018-01-02T01:45:05.592Z,997.41
2018-01-02T01:46:59.268Z,997.44
2018-01-02T01:48:00.173Z,997.43
2018-01-02T01:49:53.747Z,997.45
2018-01-02T01:50:53.646Z,997.46
2018-01-02T01:52:46.344Z,997.54
2018-01-02T01:53:45.289Z,997.55
2018-01-02T01:55:40.785Z,997.58
2018-01-02T01:56:40.764Z,997.60
2018-01-02T01:58:35.763Z,997.56
2018-01-02T01:59:34.374Z,997.52
2018-01-02T02:01:26.677Z,997.52
2018-01-02T02:02:27.891Z,997.59
2018-01-02T02:04:20.525Z,997.58
2018-01-02T02:05:21.447Z,997.54
2018-01-02T02:07:14.993Z,997.60
2018-01-02T02:08:15.027Z,997.57
2018-01-02T02:10:05.716Z,997.53
2018-01-02T02:11:06.648Z,997.61
2018-01-02T02:13:02.104Z,997.66
2018-01-02T02:14:02.086Z,997.66
2018-01-02T02:15:54.665Z,997.67
2018-01-02T02:16:55.590Z,997.65
2018-01-02T02:18:49.114Z,997.70
2018-01-02T02:19:49.267Z,997.74
2018-01-02T02:21:41.941Z,997.78
2018-01-02T02:22:42.788Z,997.77
2018-01-02T02:24:36.364Z,997.75
2018-01-02T02:25:36.329Z,997.76
2018-01-02T02:27:29.038Z,997.78
2018-01-02T02:28:27.255Z,997.82
2018-01-02T02:30:22.376Z,997.84
2018-01-02T02:31:23.436Z,997.82
2018-01-02T02:33:14.784Z,997.84
2018-01-02T02:34:16.073Z,997.86
2018-01-02T02:36:09.694Z,997.84
2018-01-02T02:37:10.574Z,997.88
2018-01-02T02:39:04.109Z,997.93
2018-01-02T02:40:04.104Z,997.96
2018-01-02T02:41:56.801Z,997.93
2018-01-02T02:42:57.706Z,997.94
2018-01-02T02:44:51.227Z,997.94
2018-01-02T02:45:48.628Z,997.96
2018-01-02T02:47:43.896Z,997.98
2018-01-02T02:48:44.817Z,997.91
2018-01-02T02:50:38.266Z,997.98
2018-01-02T02:51:38.347Z,997.95
2018-01-02T02:53:31.013Z,997.99
2018-01-02T02:54:31.927Z,998.05
2018-01-02T02:56:24.650Z,998.07
2018-01-02T02:57:25.446Z,998.03
2018-01-02T02:59:19.600Z,998.10
2018-01-02T03:00:19.055Z,998.09
2018-01-02T03:02:12.562Z,998.08
2018-01-02T03:03:09.960Z,998.13
2018-01-02T03:05:05.235Z,998.11
2018-01-02T03:06:06.167Z,998.12
2018-01-02T03:07:59.731Z,998.14
2018-01-02T03:08:59.714Z,998.12
2018-01-02T03:10:52.379Z,998.17
2018-01-02T03:11:53.325Z,998.19
2018-01-02T03:13:46.784Z,998.23
2018-01-02T03:14:46.806Z,998.26
2018-01-02T03:16:39.485Z,998.24
2018-01-02T03:17:40.343Z,998.24
2018-01-02T03:19:32.892Z,998.28
2018-01-02T03:20:31.274Z,998.21
2018-01-02T03:22:26.605Z,998.28
2018-01-02T03:23:27.470Z,998.28
2018-01-02T03:25:20.139Z,998.34
2018-01-02T03:26:20.009Z,998.29
2018-01-02T03:28:14.475Z,998.33
2018-01-02T03:29:14.658Z,998.37
2018-01-02T03:31:07.232Z,998.35
2018-01-02T03:32:08.140Z,998.33
2018-01-02T03:34:01.689Z,998.32
2018-01-02T03:35:01.700Z,998.36
2018-01-02T03:36:54.646Z,998.35
2018-01-02T03:37:52.626Z,998.36
2018-01-02T03:39:48.808Z,998.37
2018-01-02T03:40:48.846Z,998.41
2018-01-02T03:42:41.497Z,998.41
2018-01-02T03:43:42.401Z,998.41
2018-01-02T03:45:35.791Z,998.39
2018-01-02T03:46:35.860Z,998.45
2018-01-02T03:48:28.637Z,998.47
2018-01-02T03:49:29.474Z,998.51
2018-01-02T03:51:23.106Z,998.52
2018-01-02T03:52:23.939Z,998.52
2018-01-02T03:54:15.555Z,998.51
2018-01-02T03:55:14.652Z,998.51
2018-01-02T03:57:10.180Z,998.54
2018-01-02T03:58:10.202Z,998.56
2018-01-02T04:00:02.829Z,998.58
2018-01-02T04:01:03.730Z,998.59
2018-01-02T04:02:56.229Z,998.61
2018-01-02T04:03:57.327Z,998.62
2018-01-02T04:05:49.960Z,998.61
2018-01-02T04:06:50.861Z,998.69
2018-01-02T04:08:43.493Z,998.70
2018-01-02T04:09:44.460Z,998.71
2018-01-02T04:11:37.998Z,998.72
2018-01-02T04:12:35.924Z,998.72
2018-01-02T04:14:30.626Z,998.70
2018-01-02T04:15:31.534Z,998.70
2018-01-02T04:17:25.061Z,998.76
2018-01-02T04:18:24.289Z,998.76
2018-01-02T04:20:17.763Z,998.76
2018-01-02T04:21:17.670Z,998.81
2018-01-02T04:23:12.163Z,998.84
2018-01-02T04:24:12.177Z,998.81
2018-01-02T04:26:04.836Z,998.86
2018-01-02T04:27:05.766Z,998.90
2018-01-02T04:28:59.940Z,998.96
2018-01-02T04:29:56.618Z,998.96
2018-01-02T04:31:52.795Z,998.98
2018-01-02T04:32:51.893Z,998.98
2018-01-02T04:34:46.976Z,999.01
2018-01-02T04:35:46.425Z,999.05
2018-01-02T04:37:39.791Z,999.04
2018-01-02T04:38:39.950Z,999.09
2018-01-02T04:40:32.615Z,999.15
2018-01-02T04:41:33.527Z,999.18
2018-01-02T04:43:27.069Z,999.23
2018-01-02T04:44:27.117Z,999.23
2018-01-02T04:46:19.707Z,999.26
2018-01-02T04:47:20.610Z,999.28
2018-01-02T04:49:14.037Z,999.32
2018-01-02T04:50:14.172Z,999.27
2018-01-02T04:52:06.844Z,999.34
2018-01-02T04:53:07.732Z,999.36
2018-01-02T04:55:01.282Z,999.38
2018-01-02T04:56:01.290Z,999.39
2018-01-02T04:57:53.752Z,999.40
2018-01-02T04:58:54.853Z,999.45
2018-01-02T05:00:48.410Z,999.46
2018-01-02T05:01:49.345Z,999.47
2018-01-02T05:03:42.569Z,999.46
2018-01-02T05:04:39.987Z,999.46
2018-01-02T05:06:35.526Z,999.52
2018-01-02T05:07:35.567Z,999.50
2018-01-02T05:09:28.047Z,999.59
2018-01-02T05:10:29.118Z,999.60
2018-01-02T05:12:22.627Z,999.61
2018-01-02T05:13:22.679Z,999.58
2018-01-02T05:15:15.318Z,999.68
2018-01-02T05:16:16.241Z,999.72
2018-01-02T05:18:09.800Z,999.71
2018-01-02T05:19:09.772Z,999.72
2018-01-02T05:21:02.301Z,999.81
2018-01-02T05:22:03.319Z,999.84
2018-01-02T05:23:55.804Z,999.88
2018-01-02T05:24:56.925Z,999.93
2018-01-02T05:26:49.395Z,1000.01
2018-01-02T05:27:50.422Z,999.95
2018-01-02T05:29:43.124Z,1000.02
2018-01-02T05:30:44.011Z,1000.00
2018-01-02T05:32:36.674Z,999.99
2018-01-02T05:33:37.531Z,1000.00
2018-01-02T05:35:31.093Z,1000.03
2018-01-02T05:36:31.145Z,1000.03
2018-01-02T05:38:25.236Z,1000.13
2018-01-02T05:39:24.660Z,1000.13
2018-01-02T05:41:17.054Z,1000.24
2018-01-02T05:42:18.204Z,1000.25
2018-01-02T05:44:10.911Z,1000.24
2018-01-02T05:45:10.864Z,1000.29
2018-01-02T05:47:05.353Z,1000.37
2018-01-02T05:48:05.323Z,1000.36
2018-01-02T05:49:58.005Z,1000.38
2018-01-02T05:50:58.024Z,1000.41
2018-01-02T05:52:51.559Z,1000.43
2018-01-02T05:53:52.443Z,1000.42
2018-01-02T05:55:45.126Z,1000.46
2018-01-02T05:56:46.013Z,1000.47
2018-01-02T05:58:39.592Z,1000.52
2018-01-02T05:59:39.583Z,1000.48
2018-01-02T06:01:33.736Z,1000.53
2018-01-02T06:02:33.171Z,1000.60
2018-01-02T06:04:26.693Z,1000.59
2018-01-02T06:05:26.654Z,1000.62
2018-01-02T06:07:18.103Z,1000.63
2018-01-02T06:08:20.285Z,1000.63
2018-01-02T06:10:13.770Z,1000.65
2018-01-02T06:11:13.807Z,1000.68
2018-01-02T06:13:06.405Z,1000.72
2018-01-02T06:14:07.325Z,1000.76
2018-01-02T06:16:00.917Z,1000.83
2018-01-02T06:17:00.968Z,1000.85
2018-01-02T06:18:53.579Z,1000.88
2018-01-02T06:19:54.505Z,1000.89
2018-01-02T06:21:47.992Z,1000.89
2018-01-02T06:22:47.994Z,1000.88
2018-01-02T06:24:40.639Z,1000.90
2018-01-02T06:25:41.579Z,1000.92
2018-01-02T06:27:35.185Z,1000.97
2018-01-02T06:28:35.142Z,1000.99
2018-01-02T06:30:27.746Z,1001.05
2018-01-02T06:31:28.668Z,1001.07
2018-01-02T06:33:22.220Z,1001.12
2018-01-02T06:34:22.272Z,1001.13
2018-01-02T06:36:14.867Z,1001.16
2018-01-02T06:37:15.795Z,1001.21
2018-01-02T06:39:09.386Z,1001.21
2018-01-02T06:40:09.423Z,1001.23
2018-01-02T06:42:02.020Z,1001.26
2018-01-02T06:43:02.890Z,1001.23
2018-01-02T06:44:56.463Z,1001.29
2018-01-02T06:45:56.453Z,1001.32
2018-01-02T06:47:49.139Z,1001.36
2018-01-02T06:48:49.752Z,1001.36
2018-01-02T06:50:43.602Z,1001.37
2018-01-02T06:51:43.669Z,1001.42
2018-01-02T06:53:36.265Z,1001.38
2018-01-02T06:54:37.184Z,1001.47
2018-01-02T06:56:30.443Z,1001.40
2018-01-02T06:57:30.699Z,1001.45
2018-01-02T06:59:23.340Z,1001.52
2018-01-02T07:00:24.290Z,1001.52
2018-01-02T07:02:17.034Z,1001.59
2018-01-02T07:03:17.834Z,1001.58
2018-01-02T07:05:11.454Z,1001.60
2018-01-02T07:06:11.360Z,1001.61
2018-01-02T07:08:03.757Z,1001.62
2018-01-02T07:09:04.987Z,1001.63
2018-01-02T07:10:58.543Z,1001.63
2018-01-02T07:11:58.552Z,1001.65
2018-01-02T07:13:51.360Z,1001.68
2018-01-02T07:14:52.050Z,1001.67
2018-01-02T07:16:45.624Z,1001.72
2018-01-02T07:17:45.612Z,1001.77
2018-01-02T07:19:38.026Z,1001.83
2018-01-02T07:20:39.147Z,1001.85
2018-01-02T07:22:31.689Z,1001.87
2018-01-02T07:23:32.696Z,1001.87
2018-01-02T07:25:26.145Z,1001.91
2018-01-02T07:26:26.253Z,1001.94
2018-01-02T07:28:18.947Z,1002.03
2018-01-02T07:29:19.815Z,1002.04
2018-01-02T07:31:12.306Z,1002.06
2018-01-02T07:32:13.396Z,1002.10
2018-01-02T07:34:06.065Z,1002.13
2018-01-02T07:35:06.932Z,1002.11
2018-01-02T07:36:58.133Z,1002.17
2018-01-02T07:38:00.510Z,1002.18
2018-01-02T07:39:53.061Z,1002.23
2018-01-02T07:40:54.001Z,1002.22
2018-01-02T07:42:47.654Z,1002.28
2018-01-02T07:43:47.647Z,1002.26
2018-01-02T07:45:40.117Z,1002.25
2018-01-02T07:46:41.161Z,1002.27
2018-01-02T07:48:33.806Z,1002.30
2018-01-02T07:49:34.753Z,1002.32
2018-01-02T07:51:28.324Z,1002.33
2018-01-02T07:52:28.292Z,1002.38
2018-01-02T07:54:19.066Z,1002.43
2018-01-02T07:55:21.868Z,1002.41
2018-01-02T07:57:15.386Z,1002.44
2018-01-02T07:58:15.443Z,1002.44
2018-01-02T08:00:08.885Z,1002.48
2018-01-02T08:01:08.940Z,1002.55
2018-01-02T08:03:02.567Z,1002.55
2018-01-02T08:04:02.535Z,1002.57
2018-01-02T08:05:55.195Z,1002.58
2018-01-02T08:06:56.062Z,1002.61
2018-01-02T08:08:49.636Z,1002.67
2018-01-02T08:09:49.608Z,1002.68
2018-01-02T08:11:42.147Z,1002.75
2018-01-02T08:12:43.173Z,1002.76
2018-01-02T08:14:36.078Z,1002.79
2018-01-02T08:15:36.731Z,1002.77
2018-01-02T08:17:30.301Z,1002.90
2018-01-02T08:18:30.336Z,1002.96
2018-01-02T08:20:23.013Z,1002.94
2018-01-02T08:21:23.843Z,1002.98
2018-01-02T08:23:15.064Z,1003.00
2018-01-02T08:24:17.421Z,1003.04
2018-01-02T08:26:10.021Z,1003.10
2018-01-02T08:27:10.967Z,1003.08
2018-01-02T08:29:04.351Z,1003.18
2018-01-02T08:30:04.551Z,1003.17
2018-01-02T08:31:57.195Z,1003.23
2018-01-02T08:32:58.064Z,1003.28
2018-01-02T08:34:51.608Z,1003.30
2018-01-02T08:35:51.640Z,1003.27
2018-01-02T08:37:44.318Z,1003.31
2018-01-02T08:38:45.208Z,1003.28
2018-01-02T08:40:39.184Z,1003.24
2018-01-02T08:41:38.774Z,1003.30
2018-01-02T08:43:31.362Z,1003.35
2018-01-02T08:44:32.298Z,1003.37
2018-01-02T08:46:25.742Z,1003.41
2018-01-02T08:47:26.771Z,1003.42
2018-01-02T08:49:18.267Z,1003.47
2018-01-02T08:50:19.463Z,1003.58
2018-01-02T08:52:12.096Z,1003.51
2018-01-02T08:53:12.984Z,1003.57
2018-01-02T08:55:06.495Z,1003.62
2018-01-02T08:56:06.588Z,1003.66
2018-01-02T08:57:59.293Z,1003.71
2018-01-02T08:59:00.126Z,1003.70
2018-01-02T09:00:53.650Z,1003.72
2018-01-02T09:01:52.931Z,1003.77
2018-01-02T09:03:46.277Z,1003.76
2018-01-02T09:04:47.245Z,1003.80
2018-01-02T09:06:39.665Z,1003.84
2018-01-02T09:07:40.808Z,1003.80
2018-01-02T09:09:34.315Z,1003.91
2018-01-02T09:11:49.742Z,1003.96
2018-01-02T09:12:47.716Z,1004.04
2018-01-02T09:14:41.327Z,1004.07
2018-01-02T09:15:41.304Z,1004.01
2018-01-02T09:17:33.974Z,1004.04
2018-01-02T09:18:34.856Z,1004.05
2018-01-02T09:20:28.442Z,1004.10
2018-01-02T09:21:28.388Z,1004.10
2018-01-02T09:23:20.839Z,1004.15
2018-01-02T09:24:21.952Z,1004.16
2018-01-02T09:26:15.509Z,1004.17
2018-01-02T09:27:15.515Z,1004.20
2018-01-02T09:29:06.283Z,1004.14
2018-01-02T09:30:06.442Z,1004.23
2018-01-02T09:31:59.745Z,1004.20
2018-01-02T09:33:02.620Z,1004.16
2018-01-02T09:34:55.359Z,1004.20
2018-01-02T09:35:56.183Z,1004.20
2018-01-02T09:37:46.832Z,1004.31
2018-01-02T09:38:49.734Z,1004.28
2018-01-02T09:40:42.442Z,1004.34
2018-01-02T09:41:43.302Z,1004.34
2018-01-02T09:43:35.390Z,1004.38
2018-01-02T09:44:36.864Z,1004.41
2018-01-02T09:46:29.380Z,1004.33
2018-01-02T09:47:27.912Z,1004.42
2018-01-02T09:49:24.004Z,1004.48
2018-01-02T09:50:24.002Z,1004.42
2018-01-02T09:52:16.722Z,1004.49
2018-01-02T09:53:17.518Z,1004.49
2018-01-02T09:55:11.101Z,1004.45
2018-01-02T09:56:11.104Z,1004.45
2018-01-02T09:58:03.004Z,1004.40
2018-01-02T09:59:04.689Z,1004.52
2018-01-02T10:00:58.245Z,1004.50
2018-01-02T10:01:58.194Z,1004.59
2018-01-02T10:03:48.955Z,1004.66
2018-01-02T10:04:49.091Z,1004.71
2018-01-02T10:06:45.377Z,1004.68
2018-01-02T10:07:45.324Z,1004.73
2018-01-02T10:09:37.838Z,1004.66
2018-01-02T10:11:51.431Z,1004.75
2018-01-02T10:12:52.320Z,1004.78
2018-01-02T10:14:43.059Z,1004.81
2018-01-02T10:15:45.847Z,1004.82
2018-01-02T10:17:39.181Z,1004.88
2018-01-02T10:18:39.438Z,1004.84
2018-01-02T10:20:31.133Z,1004.87
2018-01-02T10:21:32.951Z,1004.84
2018-01-02T10:23:26.553Z,1004.91
2018-01-02T10:24:26.537Z,1004.90
2018-01-02T10:26:20.691Z,1004.89
2018-01-02T10:27:20.076Z,1004.90
2018-01-02T10:29:14.024Z,1004.91
2018-01-02T10:30:13.648Z,1004.89
2018-01-02T10:32:04.370Z,1004.87
2018-01-02T10:33:07.189Z,1004.84
2018-01-02T10:35:01.822Z,1004.91
2018-01-02T10:36:00.750Z,1004.89
2018-01-02T10:37:54.440Z,1004.87
2018-01-02T10:38:54.322Z,1004.91
2018-01-02T10:40:46.976Z,1004.89
2018-01-02T10:41:47.866Z,1004.90
2018-01-02T10:43:41.289Z,1004.92
2018-01-02T10:44:41.046Z,1004.93
2018-01-02T10:46:33.978Z,1004.91
2018-01-02T10:47:34.972Z,1004.93
2018-01-02T10:49:27.635Z,1004.91
2018-01-02T10:50:28.579Z,1004.91
2018-01-02T10:52:21.273Z,1004.89
2018-01-02T10:53:22.103Z,1004.86
2018-01-02T10:55:14.705Z,1004.85
2018-01-02T10:56:15.657Z,1004.85
2018-01-02T10:58:09.234Z,1004.87
2018-01-02T10:59:09.252Z,1004.86
2018-01-02T11:01:02.238Z,1004.89
2018-01-02T11:02:00.800Z,1004.88
2018-01-02T11:03:56.242Z,1004.89
2018-01-02T11:04:56.561Z,1004.91
2018-01-02T11:06:49.098Z,1004.92
2018-01-02T11:07:49.892Z,1004.89
2018-01-02T11:09:43.376Z,1004.96
2018-01-02T11:10:43.459Z,1004.92
2018-01-02T11:12:36.105Z,1004.99
2018-01-02T11:13:36.995Z,1005.01
2018-01-02T11:15:30.558Z,1004.97
2018-01-02T11:16:30.562Z,1004.90
2018-01-02T11:18:23.252Z,1005.03
2018-01-02T11:19:24.108Z,1005.05
2018-01-02T11:21:17.690Z,1005.03
2018-01-02T11:22:17.705Z,1005.03
2018-01-02T11:24:10.297Z,1004.97
2018-01-02T11:25:11.261Z,1005.04
2018-01-02T11:27:04.680Z,1004.93
2018-01-02T11:28:04.789Z,1004.97
2018-01-02T11:29:58.103Z,1005.00
2018-01-02T11:30:57.639Z,1004.91
2018-01-02T11:32:50.596Z,1005.01
2018-01-02T11:33:51.980Z,1005.03
2018-01-02T11:35:44.589Z,1005.09
2018-01-02T11:36:44.688Z,1004.97
2018-01-02T11:38:38.160Z,1005.00
2018-01-02T11:39:39.196Z,1004.95
2018-01-02T11:41:32.730Z,1005.00
2018-01-02T11:42:32.747Z,1004.99
2018-01-02T11:44:25.296Z,1004.94
2018-01-02T11:45:26.144Z,1004.96
2018-01-02T11:47:18.823Z,1004.95
2018-01-02T11:48:19.834Z,1004.96
2018-01-02T11:50:13.298Z,1005.07
2018-01-02T11:51:13.417Z,1005.03
2018-01-02T11:53:06.314Z,1005.02
2018-01-02T11:54:06.824Z,1005.03
2018-01-02T11:56:00.317Z,1005.03
2018-01-02T11:57:00.428Z,1005.03
2018-01-02T11:58:53.082Z,1005.02
2018-01-02T11:59:53.985Z,1005.02
2018-01-02T12:01:45.312Z,1004.97
2018-01-02T12:02:47.489Z,1004.94
2018-01-02T12:04:39.961Z,1005.01
2018-01-02T12:05:41.058Z,1004.98
2018-01-02T12:07:36.994Z,1004.86
2018-01-02T12:08:34.695Z,1004.88
2018-01-02T12:10:27.290Z,1004.90
2018-01-02T12:11:28.176Z,1004.85
2018-01-02T12:13:21.780Z,1004.86
2018-01-02T12:14:21.785Z,1004.86
2018-01-02T12:16:14.277Z,1004.82
2018-01-02T12:17:15.319Z,1004.84
2018-01-02T12:19:06.479Z,1004.81
2018-01-02T12:20:08.032Z,1004.81
2018-01-02T12:22:03.137Z,1004.77
2018-01-02T12:23:02.409Z,1004.71
2018-01-02T12:24:55.059Z,1004.71
2018-01-02T12:25:55.999Z,1004.70
2018-01-02T12:27:49.561Z,1004.64
2018-01-02T12:28:49.567Z,1004.66
2018-01-02T12:30:42.148Z,1004.63
2018-01-02T12:31:43.087Z,1004.61
2018-01-02T12:33:36.650Z,1004.62
2018-01-02T12:34:36.727Z,1004.63
2018-01-02T12:36:29.112Z,1004.59
2018-01-02T12:37:30.248Z,1004.56
2018-01-02T12:39:23.761Z,1004.48
2018-01-02T12:40:23.822Z,1004.48
2018-01-02T12:42:16.247Z,1004.45
2018-01-02T12:43:17.367Z,1004.51
2018-01-02T12:45:10.849Z,1004.46
2018-01-02T12:46:10.920Z,1004.44
2018-01-02T12:48:03.567Z,1004.42
2018-01-02T12:49:03.499Z,1004.41
2018-01-02T12:50:56.862Z,1004.46
2018-01-02T12:51:58.047Z,1004.46
2018-01-02T12:53:51.591Z,1004.47
2018-01-02T12:54:51.574Z,1004.44
2018-01-02T12:56:44.241Z,1004.40
2018-01-02T12:57:45.171Z,1004.46
2018-01-02T12:59:38.684Z,1004.59
2018-01-02T13:00:38.869Z,1004.54
2018-01-02T13:02:31.404Z,1004.60
2018-01-02T13:03:31.645Z,1004.60
2018-01-02T13:05:25.824Z,1004.60
2018-01-02T13:06:23.890Z,1004.55
2018-01-02T13:08:20.007Z,1004.58
2018-01-02T13:09:19.474Z,1004.65
2018-01-02T13:11:11.888Z,1004.64
2018-01-02T13:12:12.954Z,1004.61
2018-01-02T13:14:05.626Z,1004.60
2018-01-02T13:15:06.515Z,1004.63
2018-01-02T13:17:00.048Z,1004.60
2018-01-02T13:18:00.053Z,1004.53
2018-01-02T13:19:54.214Z,1004.55
2018-01-02T13:20:53.672Z,1004.52
2018-01-02T13:22:46.284Z,1004.57
2018-01-02T13:23:45.275Z,1004.58
2018-01-02T13:25:41.441Z,1004.63
2018-01-02T13:26:39.867Z,1004.60
2018-01-02T13:28:33.428Z,1004.70
2018-01-02T13:29:34.269Z,1004.79
2018-01-02T13:31:27.874Z,1004.80
2018-01-02T13:32:28.044Z,1004.80
2018-01-02T13:34:20.448Z,1004.81
2018-01-02T13:35:21.404Z,1004.80
2018-01-02T13:37:14.950Z,1004.73
2018-01-02T13:38:15.005Z,1004.74
2018-01-02T13:40:07.629Z,1004.79
2018-01-02T13:41:06.693Z,1004.81
2018-01-02T13:43:00.998Z,1004.84
2018-01-02T13:44:02.066Z,1004.82
2018-01-02T13:45:54.601Z,1004.76
2018-01-02T13:46:55.644Z,1004.85
2018-01-02T13:48:49.184Z,1004.86
2018-01-02T13:49:48.315Z,1004.89
2018-01-02T13:51:41.878Z,1004.96
2018-01-02T13:52:42.761Z,1004.98
2018-01-02T13:54:35.538Z,1004.98
2018-01-02T13:55:36.334Z,1004.90
2018-01-02T13:57:30.498Z,1004.93
2018-01-02T13:58:27.249Z,1004.91
2018-01-02T14:00:23.422Z,1004.87
2018-01-02T14:01:23.491Z,1004.89
2018-01-02T14:03:16.102Z,1004.89
2018-01-02T14:04:16.972Z,1004.80
2018-01-02T14:06:10.572Z,1004.73
2018-01-02T14:07:10.551Z,1004.72
2018-01-02T14:09:03.203Z,1004.76
2018-01-02T14:10:03.205Z,1004.75
2018-01-02T14:11:57.692Z,1004.77
2018-01-02T14:12:57.659Z,1004.78
2018-01-02T14:14:50.332Z,1004.72
2018-01-02T14:15:50.585Z,1004.67
2018-01-02T14:17:43.957Z,1004.73
2018-01-02T14:18:44.769Z,1004.74
2018-01-02T14:20:37.381Z,1004.74
2018-01-02T14:21:38.319Z,1004.76
2018-01-02T14:23:31.945Z,1004.68
2018-01-02T14:24:31.917Z,1004.64
2018-01-02T14:26:24.466Z,1004.60
2018-01-02T14:27:25.435Z,1004.58
2018-01-02T14:29:19.043Z,1004.59
2018-01-02T14:30:19.026Z,1004.57
2018-01-02T14:32:11.894Z,1004.59
2018-01-02T14:33:12.573Z,1004.59
2018-01-02T14:35:06.115Z,1004.60
2018-01-02T14:36:06.136Z,1004.61
2018-01-02T14:37:58.802Z,1004.58
2018-01-02T14:38:59.694Z,1004.54
2018-01-02T14:40:53.220Z,1004.45
2018-01-02T14:41:53.276Z,1004.43
2018-01-02T14:43:44.621Z,1004.34
2018-01-02T14:44:46.811Z,1004.37
2018-01-02T14:46:40.364Z,1004.35
2018-01-02T14:47:40.349Z,1004.28
2018-01-02T14:49:32.843Z,1004.31
2018-01-02T14:50:33.920Z,1004.26
2018-01-02T14:52:27.524Z,1004.29
2018-01-02T14:53:27.502Z,1004.26
2018-01-02T14:55:20.160Z,1004.23
2018-01-02T14:56:21.022Z,1004.25
2018-01-02T14:58:13.726Z,1004.20
2018-01-02T14:59:14.622Z,1004.18
2018-01-02T15:01:08.106Z,1004.09
2018-01-02T15:02:08.173Z,1004.11
2018-01-02T15:04:01.071Z,1004.09
2018-01-02T15:05:01.705Z,1004.14
2018-01-02T15:06:54.206Z,1004.09
2018-01-02T15:07:55.261Z,1004.11
2018-01-02T15:09:48.859Z,1004.02
2018-01-02T15:10:48.822Z,1004.03
2018-01-02T15:12:41.436Z,1004.08
2018-01-02T15:13:42.360Z,1004.07
2018-01-02T15:15:33.797Z,1004.11
2018-01-02T15:16:35.960Z,1004.08
2018-01-02T15:18:29.727Z,1004.08
2018-01-02T15:19:29.486Z,1004.08
2018-01-02T15:21:22.191Z,1004.14
2018-01-02T15:22:23.039Z,1004.04
2018-01-02T15:24:15.745Z,1004.20
2018-01-02T15:25:16.637Z,1004.23
2018-01-02T15:27:09.207Z,1004.15
2018-01-02T15:28:10.161Z,1004.17
2018-01-02T15:30:02.838Z,1004.10
2018-01-02T15:31:03.711Z,1004.05
2018-01-02T15:32:55.172Z,1004.09
2018-01-02T15:33:57.274Z,1004.07
2018-01-02T15:35:49.896Z,1004.03
2018-01-02T15:36:50.825Z,1004.01
2018-01-02T15:38:44.432Z,1003.96
2018-01-02T15:39:44.421Z,1004.03
2018-01-02T15:41:35.666Z,1004.00
2018-01-02T15:42:37.942Z,1004.02
2018-01-02T15:44:30.623Z,1004.00
2018-01-02T15:45:31.498Z,1004.00
2018-01-02T15:47:25.082Z,1004.00
2018-01-02T15:48:25.044Z,1004.01
2018-01-02T15:50:15.802Z,1004.02
2018-01-02T15:51:18.602Z,1004.00
2018-01-02T15:53:11.183Z,1003.98
2018-01-02T15:54:12.219Z,1003.97
2018-01-02T15:56:05.742Z,1004.01
2018-01-02T15:57:05.739Z,1004.07
2018-01-02T15:58:59.868Z,1004.20
2018-01-02T15:59:59.275Z,1004.20
2018-01-02T16:01:51.780Z,1004.14
2018-01-02T16:04:06.385Z,1004.12
2018-01-02T16:05:06.232Z,1004.11
2018-01-02T16:06:58.790Z,1004.10
2018-01-02T16:07:59.843Z,1004.07
2018-01-02T16:09:52.470Z,1004.05
2018-01-02T16:10:53.351Z,1004.06
2018-01-02T16:12:46.771Z,1003.98
2018-01-02T16:13:46.917Z,1004.00
2018-01-02T16:15:41.035Z,1003.96
2018-01-02T16:16:40.457Z,1003.96
2018-01-02T16:18:34.031Z,1003.87
2018-01-02T16:19:34.014Z,1003.86
2018-01-02T16:21:26.713Z,1003.87
2018-01-02T16:22:27.573Z,1003.86
2018-01-02T16:24:21.139Z,1003.83
2018-01-02T16:25:21.135Z,1003.80
2018-01-02T16:27:13.823Z,1003.71
2018-01-02T16:28:14.677Z,1003.59
2018-01-02T16:30:08.495Z,1003.61
2018-01-02T16:31:08.306Z,1003.58
2018-01-02T16:33:00.691Z,1003.65
2018-01-02T16:34:01.803Z,1003.63
2018-01-02T16:35:54.471Z,1003.56
2018-01-02T16:36:53.858Z,1003.53
2018-01-02T16:38:48.968Z,1003.48
2018-01-02T16:39:48.919Z,1003.52
2018-01-02T16:41:41.630Z,1003.52
2018-01-02T16:42:42.716Z,1003.55
2018-01-02T16:44:36.107Z,1003.40
2018-01-02T16:45:36.097Z,1003.39
2018-01-02T16:47:28.213Z,1003.34
2018-01-02T16:48:29.588Z,1003.31
2018-01-02T16:50:23.145Z,1003.24
2018-01-02T16:51:23.153Z,1003.24
2018-01-02T16:53:15.535Z,1003.19
2018-01-02T16:54:17.633Z,1003.12
2018-01-02T16:56:10.211Z,1003.10
2018-01-02T16:57:10.256Z,1003.05
2018-01-02T16:59:02.978Z,1003.06
2018-01-02T17:00:03.827Z,1003.07
2018-01-02T17:01:57.336Z,1003.08
2018-01-02T17:02:57.371Z,1003.05
2018-01-02T17:04:49.909Z,1002.97
2018-01-02T17:05:50.939Z,1002.99
2018-01-02T17:07:44.542Z,1002.80
2018-01-02T17:08:44.480Z,1002.79
2018-01-02T17:10:37.145Z,1002.66
2018-01-02T17:11:38.067Z,1002.70
2018-01-02T17:13:31.634Z,1002.72
2018-01-02T17:14:31.598Z,1002.71
2018-01-02T17:16:25.738Z,1002.71
2018-01-02T17:17:25.221Z,1002.72
2018-01-02T17:19:18.814Z,1002.60
2018-01-02T17:20:18.717Z,1002.65
2018-01-02T17:22:11.411Z,1002.61
2018-01-02T17:23:12.326Z,1002.62
2018-01-02T17:25:05.837Z,1002.60
2018-01-02T17:26:05.832Z,1002.60
2018-01-02T17:27:58.499Z,1002.58
2018-01-02T17:28:59.377Z,1002.54
2018-01-02T17:30:52.947Z,1002.49
2018-01-02T17:31:53.111Z,1002.53
2018-01-02T17:33:45.670Z,1002.49
2018-01-02T17:34:46.496Z,1002.49
2018-01-02T17:36:39.070Z,1002.41
2018-01-02T17:37:40.060Z,1002.40
2018-01-02T17:39:32.912Z,1002.39
2018-01-02T17:40:33.612Z,1002.33
2018-01-02T17:42:26.338Z,1002.34